createdAt,value
2019-02-14T00:01:16.952Z,23.23
2019-02-14T00:06:22.989Z,23.20
2019-02-14T00:11:28.995Z,19.13
2019-02-14T00:16:35.129Z,19.30
2019-02-14T00:21:41.311Z,19.03
2019-02-14T00:26:47.389Z,19.33
2019-02-14T00:31:53.482Z,15.40
2019-02-14T00:36:59.650Z,14.63
2019-02-14T00:42:05.731Z,15.03
2019-02-14T00:47:11.792Z,16.30
2019-02-14T00:52:18.038Z,16.33
2019-02-14T00:57:24.087Z,18.97
2019-02-14T01:02:30.207Z,14.20
2019-02-14T01:07:36.285Z,12.87
2019-02-14T01:12:42.264Z,15.97
2019-02-14T01:17:48.263Z,15.97
2019-02-14T01:22:54.405Z,11.73
2019-02-14T01:28:00.409Z,16.00
2019-02-14T01:33:06.449Z,13.63
2019-02-14T01:38:12.462Z,15.37
2019-02-14T01:43:18.635Z,12.57
2019-02-14T01:48:35.953Z,11.20
2019-02-14T01:53:42.136Z,12.87
2019-02-14T01:58:48.224Z,14.53
2019-02-14T02:03:54.297Z,12.33
2019-02-14T02:09:00.238Z,9.90
2019-02-14T02:14:06.344Z,10.53
2019-02-14T02:19:12.450Z,10.87
2019-02-14T02:24:18.377Z,14.13
2019-02-14T02:29:24.324Z,12.57
2019-02-14T02:34:30.319Z,12.13
2019-02-14T02:39:36.573Z,10.70
2019-02-14T02:44:42.790Z,12.30
2019-02-14T02:49:48.773Z,10.73
2019-02-14T02:54:54.651Z,11.27
2019-02-14T03:00:00.773Z,11.37
2019-02-14T03:05:07.630Z,15.23
2019-02-14T03:10:13.780Z,14.67
2019-02-14T03:15:19.927Z,10.10
2019-02-14T03:20:26.007Z,12.60
2019-02-14T03:25:31.994Z,11.30
2019-02-14T03:30:37.884Z,15.13
2019-02-14T03:35:44.082Z,9.83
2019-02-14T03:40:50.111Z,8.47
2019-02-14T03:45:56.170Z,12.87
2019-02-14T03:51:02.251Z,12.37
2019-02-14T03:56:08.166Z,8.23
2019-02-14T04:01:14.095Z,9.63
2019-02-14T04:06:27.268Z,11.47
2019-02-14T04:11:28.072Z,8.40
2019-02-14T04:16:34.177Z,12.20
2019-02-14T04:21:40.045Z,9.73
2019-02-14T04:26:46.027Z,14.30
2019-02-14T04:31:51.960Z,8.47
2019-02-14T04:36:59.090Z,13.07
2019-02-14T04:42:05.058Z,9.73
2019-02-14T04:47:11.277Z,12.33
2019-02-14T04:52:17.389Z,12.23
2019-02-14T04:57:23.498Z,10.07
2019-02-14T05:02:29.437Z,11.37
2019-02-14T05:07:35.451Z,10.33
2019-02-14T05:12:41.384Z,12.33
2019-02-14T05:17:47.348Z,10.57
2019-02-14T05:22:53.338Z,8.97
2019-02-14T05:27:59.453Z,10.27
2019-02-14T05:33:05.483Z,11.70
2019-02-14T05:38:11.654Z,8.73
2019-02-14T05:43:17.781Z,11.30
2019-02-14T05:48:24.039Z,14.30
2019-02-14T05:53:30.317Z,11.00
2019-02-14T05:58:36.461Z,13.07
2019-02-14T06:03:42.529Z,14.60
2019-02-14T06:08:48.512Z,11.47
2019-02-14T06:13:54.696Z,14.43
2019-02-14T06:19:01.685Z,13.67
2019-02-14T06:24:07.671Z,13.30
2019-02-14T06:29:13.639Z,8.47
2019-02-14T06:34:19.731Z,10.27
2019-02-14T06:39:25.779Z,17.60
2019-02-14T06:44:31.972Z,15.00
2019-02-14T06:49:37.960Z,15.33
2019-02-14T06:54:44.010Z,11.17
2019-02-14T06:59:50.035Z,12.63
2019-02-14T07:04:56.145Z,12.73
2019-02-14T07:10:02.346Z,11.47
2019-02-14T07:15:09.633Z,13.23
2019-02-14T07:20:16.131Z,19.87
2019-02-14T07:25:22.334Z,17.27
2019-02-14T07:30:28.503Z,19.43
2019-02-14T07:35:34.549Z,18.00
2019-02-14T07:40:40.639Z,13.90
2019-02-14T07:45:46.832Z,16.47
2019-02-14T07:50:52.937Z,14.27
2019-02-14T07:55:58.949Z,15.30
2019-02-14T08:01:05.131Z,18.43
2019-02-14T08:06:11.204Z,20.07
2019-02-14T08:11:17.284Z,25.73
2019-02-14T08:16:23.369Z,22.27
2019-02-14T08:21:29.419Z,19.80
2019-02-14T08:26:35.485Z,18.77
2019-02-14T08:31:41.471Z,13.83
2019-02-14T08:36:47.411Z,14.33
2019-02-14T08:41:53.456Z,14.97
2019-02-14T08:46:59.381Z,16.53
2019-02-14T08:52:05.450Z,14.00
2019-02-14T08:57:11.390Z,12.73
2019-02-14T09:02:17.488Z,15.30
2019-02-14T09:07:23.307Z,12.57
2019-02-14T09:12:29.444Z,7.43
2019-02-14T09:17:35.337Z,9.77
2019-02-14T09:22:40.963Z,7.37
2019-02-14T09:27:46.711Z,7.73
2019-02-14T09:32:52.429Z,14.30
2019-02-14T09:38:03.369Z,8.63
2019-02-14T09:43:05.651Z,8.10
2019-02-14T09:48:13.019Z,5.70
2019-02-14T09:53:19.082Z,9.00
2019-02-14T09:58:25.041Z,8.13
2019-02-14T10:03:30.709Z,6.60
2019-02-14T10:08:37.894Z,6.40
2019-02-14T10:13:43.941Z,6.77
2019-02-14T10:18:49.941Z,6.63
2019-02-14T10:23:55.608Z,6.90
2019-02-14T10:29:01.296Z,5.73
2019-02-14T10:34:07.043Z,7.43
2019-02-14T10:39:12.776Z,7.30
2019-02-14T10:44:18.432Z,6.93
2019-02-14T10:49:24.139Z,6.53
2019-02-14T10:54:29.815Z,6.87
2019-02-14T10:59:35.523Z,8.93
2019-02-14T11:04:41.201Z,11.07
2019-02-14T11:09:46.794Z,8.93
2019-02-14T11:14:52.536Z,9.40
2019-02-14T11:20:10.151Z,9.27
2019-02-14T11:25:18.689Z,10.43
2019-02-14T11:30:26.275Z,9.37
2019-02-14T11:35:32.257Z,9.60
2019-02-14T11:40:38.208Z,6.20
2019-02-14T11:45:44.214Z,12.00
2019-02-14T11:50:50.314Z,10.43
2019-02-14T11:55:57.213Z,8.43
2019-02-14T12:01:03.134Z,11.63
2019-02-14T12:06:09.201Z,11.77
2019-02-14T12:11:15.372Z,10.13
2019-02-14T12:16:21.547Z,10.33
2019-02-14T12:21:27.427Z,10.90
2019-02-14T12:26:33.412Z,8.50
2019-02-14T12:31:39.374Z,9.40
2019-02-14T12:36:45.352Z,11.73
2019-02-14T12:41:51.508Z,9.73
2019-02-14T12:46:57.506Z,9.43
2019-02-14T12:52:03.674Z,9.23
2019-02-14T12:57:09.531Z,7.50
2019-02-14T13:02:15.329Z,7.10
2019-02-14T13:07:21.283Z,8.27
2019-02-14T13:12:26.979Z,12.37
2019-02-14T13:17:32.628Z,7.73
2019-02-14T13:22:38.630Z,8.57
2019-02-14T13:27:44.662Z,7.33
2019-02-14T13:32:50.736Z,7.63
2019-02-14T13:37:56.810Z,10.93
2019-02-14T13:43:02.770Z,14.13
2019-02-14T13:48:08.760Z,7.40
2019-02-14T13:53:14.848Z,17.80
2019-02-14T13:58:21.005Z,9.13
2019-02-14T14:03:27.178Z,10.97
2019-02-14T14:08:33.243Z,8.63
2019-02-14T14:13:39.276Z,9.40
2019-02-14T14:18:45.298Z,16.67
2019-02-14T14:23:51.488Z,16.53
2019-02-14T14:28:57.476Z,10.47
2019-02-14T14:34:03.543Z,11.13
2019-02-14T14:39:20.889Z,12.37
2019-02-14T14:44:40.920Z,14.77
2019-02-14T14:49:47.024Z,12.27
2019-02-14T14:54:53.120Z,13.33
2019-02-14T14:59:59.194Z,13.00
2019-02-14T15:05:05.273Z,20.67
2019-02-14T15:10:11.344Z,15.63
2019-02-14T15:15:17.509Z,13.43
2019-02-14T15:20:23.489Z,14.77
2019-02-14T15:25:29.548Z,10.93
2019-02-14T15:30:35.643Z,11.47
2019-02-14T15:35:41.808Z,12.17
2019-02-14T15:40:47.871Z,6.20
2019-02-14T15:45:54.008Z,8.07
2019-02-14T15:51:00.067Z,9.00
2019-02-14T15:56:07.836Z,10.40
2019-02-14T16:01:16.396Z,7.97
2019-02-14T16:06:21.517Z,10.80
2019-02-14T16:11:27.661Z,10.50
2019-02-14T16:16:33.253Z,8.53
2019-02-14T16:21:38.911Z,10.63
2019-02-14T16:26:44.709Z,8.97
2019-02-14T16:31:50.398Z,18.13
2019-02-14T16:36:56.026Z,19.53
2019-02-14T16:42:01.687Z,18.53
2019-02-14T16:47:07.436Z,26.40
2019-02-14T16:52:13.166Z,28.10
2019-02-14T16:57:18.856Z,17.07
2019-02-14T17:02:24.555Z,14.60
2019-02-14T17:07:30.259Z,17.10
2019-02-14T17:12:35.971Z,25.30
2019-02-14T17:17:41.704Z,45.87
2019-02-14T17:22:47.365Z,68.97
2019-02-14T17:27:53.145Z,73.20
2019-02-14T17:32:58.811Z,72.30
2019-02-14T17:38:04.441Z,101.33
2019-02-14T17:43:10.146Z,95.67
2019-02-14T17:48:15.891Z,75.87
2019-02-14T17:53:21.605Z,45.90
2019-02-14T17:58:27.268Z,24.73
2019-02-14T18:03:33.015Z,23.50
2019-02-14T18:08:38.772Z,20.37
2019-02-14T18:13:44.535Z,18.27
2019-02-14T18:18:50.256Z,15.23
2019-02-14T18:23:55.900Z,16.87
2019-02-14T18:29:02.033Z,19.67
2019-02-14T18:34:08.183Z,16.10
2019-02-14T18:39:14.170Z,20.07
2019-02-14T18:44:20.253Z,17.97
2019-02-14T18:49:27.405Z,16.23
2019-02-14T18:54:33.418Z,21.20
2019-02-14T18:59:39.368Z,17.00
2019-02-14T19:04:45.693Z,15.70
2019-02-14T19:09:51.807Z,12.77
2019-02-14T19:14:58.677Z,19.73
2019-02-14T19:20:05.085Z,19.20
2019-02-14T19:25:11.550Z,17.87
2019-02-14T19:30:17.857Z,16.73
2019-02-14T19:35:23.944Z,16.90
2019-02-14T19:40:30.029Z,14.17
2019-02-14T19:45:36.912Z,16.73
2019-02-14T19:50:43.036Z,10.03
2019-02-14T19:55:49.149Z,15.10
2019-02-14T20:00:55.226Z,15.20
2019-02-14T20:06:01.397Z,13.13
2019-02-14T20:11:07.647Z,11.97
2019-02-14T20:16:14.075Z,9.83
2019-02-14T20:21:21.452Z,8.93
2019-02-14T20:26:27.643Z,10.63
2019-02-14T20:31:33.904Z,10.27
2019-02-14T20:36:40.091Z,10.97
2019-02-14T20:41:46.672Z,15.37
2019-02-14T20:46:53.058Z,15.73
2019-02-14T20:51:59.134Z,12.13
2019-02-14T20:57:05.174Z,13.47
2019-02-14T21:02:11.204Z,11.97
2019-02-14T21:07:17.165Z,14.30
2019-02-14T21:12:23.370Z,10.87
2019-02-14T21:17:29.428Z,13.27
2019-02-14T21:22:35.396Z,9.43
2019-02-14T21:27:41.368Z,14.87
2019-02-14T21:32:47.454Z,13.10
2019-02-14T21:37:53.733Z,10.33
2019-02-14T21:42:59.776Z,8.90
2019-02-14T21:48:06.008Z,12.73
2019-02-14T21:53:12.233Z,14.00
2019-02-14T21:58:18.338Z,12.83
2019-02-14T22:03:24.392Z,11.70
2019-02-14T22:08:30.479Z,12.17
2019-02-14T22:13:36.573Z,11.87
2019-02-14T22:18:42.631Z,16.57
2019-02-14T22:23:48.582Z,10.23
2019-02-14T22:28:54.617Z,8.63
2019-02-14T22:34:00.752Z,12.87
2019-02-14T22:39:07.208Z,13.03
2019-02-14T22:44:14.243Z,12.23
2019-02-14T22:49:20.188Z,15.07
2019-02-14T22:54:26.291Z,11.53
2019-02-14T22:59:32.335Z,11.27
2019-02-14T23:04:38.412Z,15.60
2019-02-14T23:09:45.636Z,11.53
2019-02-14T23:14:52.405Z,12.30
2019-02-14T23:19:58.584Z,10.77
2019-02-14T23:25:04.786Z,16.47
2019-02-14T23:30:10.684Z,10.80
2019-02-14T23:35:16.632Z,12.30
2019-02-14T23:40:22.695Z,12.63
2019-02-14T23:45:28.849Z,12.10
2019-02-14T23:50:34.880Z,12.27
2019-02-14T23:55:40.843Z,16.20
